sensor_id;sensor_type;location;lat;lon;timestamp;pressure;altitude;pressure_sealevel;temperature;humidity
75991;BME280;64673;52.276;10.560;2023-05-10T00:00:09;99963.63;;;13.65;56.18
75991;BME280;64673;52.276;10.560;2023-05-10T00:02:35;99963.00;;;13.68;55.55
75991;BME280;64673;52.276;10.560;2023-05-10T00:05:01;99961.19;;;13.77;54.66
75991;BME280;64673;52.276;10.560;2023-05-10T00:07:26;99948.97;;;13.66;55.52
75991;BME280;64673;52.276;10.560;2023-05-10T00:09:51;99956.78;;;13.67;55.71
75991;BME280;64673;52.276;10.560;2023-05-10T00:12:17;99942.53;;;13.75;54.73
75991;BME280;64673;52.276;10.560;2023-05-10T00:14:42;99943.72;;;13.69;56.32
75991;BME280;64673;52.276;10.560;2023-05-10T00:17:07;99936.59;;;13.73;55.16
75991;BME280;64673;52.276;10.560;2023-05-10T00:19:33;99938.16;;;13.52;56.38
75991;BME280;64673;52.276;10.560;2023-05-10T00:21:58;99938.44;;;13.64;55.09
75991;BME280;64673;52.276;10.560;2023-05-10T00:24:23;99927.09;;;13.62;55.71
75991;BME280;64673;52.276;10.560;2023-05-10T00:26:49;99932.50;;;13.62;56.07
75991;BME280;64673;52.276;10.560;2023-05-10T00:29:14;99926.72;;;13.55;56.37
75991;BME280;64673;52.276;10.560;2023-05-10T00:31:39;99922.00;;;13.47;56.25
75991;BME280;64673;52.276;10.560;2023-05-10T00:34:05;99918.91;;;13.40;56.48
75991;BME280;64673;52.276;10.560;2023-05-10T00:36:30;99920.72;;;13.44;55.98
75991;BME280;64673;52.276;10.560;2023-05-10T00:38:56;99918.81;;;13.45;55.89
75991;BME280;64673;52.276;10.560;2023-05-10T00:41:21;99918.00;;;13.44;56.48
75991;BME280;64673;52.276;10.560;2023-05-10T00:43:47;99917.69;;;13.46;56.59
75991;BME280;64673;52.276;10.560;2023-05-10T00:46:13;99920.09;;;13.47;56.32
75991;BME280;64673;52.276;10.560;2023-05-10T00:48:39;99916.78;;;13.50;55.31
75991;BME280;64673;52.276;10.560;2023-05-10T00:51:05;99925.94;;;13.41;56.99
75991;BME280;64673;52.276;10.560;2023-05-10T00:53:31;99935.94;;;13.54;55.90
75991;BME280;64673;52.276;10.560;2023-05-10T00:55:58;99932.50;;;13.62;55.32
75991;BME280;64673;52.276;10.560;2023-05-10T00:58:24;99922.69;;;13.52;56.14
75991;BME280;64673;52.276;10.560;2023-05-10T01:00:54;99926.94;;;13.45;56.29
75991;BME280;64673;52.276;10.560;2023-05-10T01:03:20;99920.09;;;13.47;55.91
75991;BME280;64673;52.276;10.560;2023-05-10T01:05:46;99915.16;;;13.49;55.29
75991;BME280;64673;52.276;10.560;2023-05-10T01:08:11;99912.66;;;13.53;55.04
75991;BME280;64673;52.276;10.560;2023-05-10T01:10:37;99914.19;;;13.45;55.97
75991;BME280;64673;52.276;10.560;2023-05-10T01:13:02;99916.09;;;13.45;55.46
75991;BME280;64673;52.276;10.560;2023-05-10T01:15:28;99915.69;;;13.51;55.66
75991;BME280;64673;52.276;10.560;2023-05-10T01:17:55;99905.88;;;13.42;56.15
75991;BME280;64673;52.276;10.560;2023-05-10T01:20:21;99907.06;;;13.36;56.68
75991;BME280;64673;52.276;10.560;2023-05-10T01:33:47;99914.88;;;13.37;56.13
75991;BME280;64673;52.276;10.560;2023-05-10T01:36:17;99916.09;;;13.45;55.99
75991;BME280;64673;52.276;10.560;2023-05-10T01:38:51;99920.00;;;13.39;55.99
75991;BME280;64673;52.276;10.560;2023-05-10T01:46:27;99920.22;;;13.29;56.26
75991;BME280;64673;52.276;10.560;2023-05-10T01:48:55;99917.41;;;13.34;55.77
75991;BME280;64673;52.276;10.560;2023-05-10T01:51:29;99907.47;;;13.29;56.59
75991;BME280;64673;52.276;10.560;2023-05-10T01:54:02;99915.91;;;13.28;56.93
75991;BME280;64673;52.276;10.560;2023-05-10T01:56:30;99910.69;;;13.17;56.48
75991;BME280;64673;52.276;10.560;2023-05-10T01:58:58;99903.69;;;13.16;56.63
75991;BME280;64673;52.276;10.560;2023-05-10T02:01:26;99903.47;;;13.27;56.61
75991;BME280;64673;52.276;10.560;2023-05-10T02:03:53;99902.28;;;13.19;56.35
75991;BME280;64673;52.276;10.560;2023-05-10T02:06:20;99904.91;;;13.24;56.87
75991;BME280;64673;52.276;10.560;2023-05-10T02:08:49;99912.31;;;13.18;56.58
75991;BME280;64673;52.276;10.560;2023-05-10T02:11:17;99903.19;;;13.14;57.09
75991;BME280;64673;52.276;10.560;2023-05-10T02:13:44;99909.78;;;13.08;57.37
75991;BME280;64673;52.276;10.560;2023-05-10T02:16:11;99909.47;;;13.10;56.92
75991;BME280;64673;52.276;10.560;2023-05-10T02:18:39;99906.69;;;13.15;56.63
75991;BME280;64673;52.276;10.560;2023-05-10T02:21:06;99905.09;;;13.14;57.66
75991;BME280;64673;52.276;10.560;2023-05-10T02:23:34;99905.38;;;13.12;57.27
75991;BME280;64673;52.276;10.560;2023-05-10T02:26:01;99900.47;;;13.14;56.92
75991;BME280;64673;52.276;10.560;2023-05-10T02:28:27;99903.47;;;12.99;57.93
75991;BME280;64673;52.276;10.560;2023-05-10T02:30:54;99906.38;;;13.03;57.61
75991;BME280;64673;52.276;10.560;2023-05-10T02:33:20;99906.28;;;13.08;57.55
75991;BME280;64673;52.276;10.560;2023-05-10T02:35:46;99902.25;;;13.05;57.85
75991;BME280;64673;52.276;10.560;2023-05-10T02:38:13;99900.25;;;12.97;57.89
75991;BME280;64673;52.276;10.560;2023-05-10T02:40:40;99898.66;;;12.96;57.41
75991;BME280;64673;52.276;10.560;2023-05-10T02:43:09;99898.16;;;12.94;58.39
75991;BME280;64673;52.276;10.560;2023-05-10T02:45:38;99898.06;;;12.99;57.94
75991;BME280;64673;52.276;10.560;2023-05-10T02:48:04;99896.06;;;12.91;58.25
75991;BME280;64673;52.276;10.560;2023-05-10T02:50:31;99898.25;;;12.89;58.47
75991;BME280;64673;52.276;10.560;2023-05-10T02:53:06;99898.25;;;12.89;58.30
75991;BME280;64673;52.276;10.560;2023-05-10T02:55:36;99887.44;;;12.89;59.13
75991;BME280;64673;52.276;10.560;2023-05-10T02:58:03;99897.25;;;12.99;57.66
75991;BME280;64673;52.276;10.560;2023-05-10T03:00:29;99892.94;;;12.84;58.43
75991;BME280;64673;52.276;10.560;2023-05-10T03:02:54;99891.22;;;12.74;58.68
75991;BME280;64673;52.276;10.560;2023-05-10T03:05:20;99892.75;;;12.80;59.49
75991;BME280;64673;52.276;10.560;2023-05-10T03:07:46;99886.03;;;12.78;59.64
75991;BME280;64673;52.276;10.560;2023-05-10T03:10:12;99888.63;;;12.69;60.74
75991;BME280;64673;52.276;10.560;2023-05-10T03:13:06;99893.22;;;12.55;60.80
75991;BME280;64673;52.276;10.560;2023-05-10T03:18:31;99895.91;;;12.41;61.81
75991;BME280;64673;52.276;10.560;2023-05-10T03:21:03;99898.41;;;12.52;60.21
75991;BME280;64673;52.276;10.560;2023-05-10T03:23:35;99900.75;;;12.58;60.83
75991;BME280;64673;52.276;10.560;2023-05-10T03:26:02;99890.69;;;12.45;61.66
75991;BME280;64673;52.276;10.560;2023-05-10T03:28:29;99901.13;;;12.52;62.28
75991;BME280;64673;52.276;10.560;2023-05-10T03:30:56;99893.50;;;12.54;62.31
75991;BME280;64673;52.276;10.560;2023-05-10T03:33:21;99894.22;;;12.45;62.13
75991;BME280;64673;52.276;10.560;2023-05-10T03:35:47;99891.72;;;12.49;61.11
75991;BME280;64673;52.276;10.560;2023-05-10T03:38:13;99891.41;;;12.37;62.31
75991;BME280;64673;52.276;10.560;2023-05-10T03:40:39;99892.53;;;12.50;61.67
75991;BME280;64673;52.276;10.560;2023-05-10T03:43:04;99909.03;;;12.48;61.69
75991;BME280;64673;52.276;10.560;2023-05-10T03:45:29;99895.63;;;12.57;61.11
75991;BME280;64673;52.276;10.560;2023-05-10T03:47:56;99906.03;;;12.63;60.73
75991;BME280;64673;52.276;10.560;2023-05-10T03:50:22;99895.53;;;12.62;60.17
75991;BME280;64673;52.276;10.560;2023-05-10T03:52:47;99902.66;;;12.58;61.79
75991;BME280;64673;52.276;10.560;2023-05-10T03:55:12;99898.13;;;12.53;60.92
75991;BME280;64673;52.276;10.560;2023-05-10T03:57:38;99903.03;;;12.65;61.00
75991;BME280;64673;52.276;10.560;2023-05-10T04:00:04;99899.03;;;12.62;60.92
75991;BME280;64673;52.276;10.560;2023-05-10T04:02:29;99892.44;;;12.68;60.60
75991;BME280;64673;52.276;10.560;2023-05-10T04:04:55;99884.84;;;12.70;60.98
75991;BME280;64673;52.276;10.560;2023-05-10T04:07:21;99888.13;;;12.67;60.85
75991;BME280;64673;52.276;10.560;2023-05-10T04:09:46;99888.81;;;12.73;61.13
75991;BME280;64673;52.276;10.560;2023-05-10T04:12:12;99887.84;;;12.69;60.59
75991;BME280;64673;52.276;10.560;2023-05-10T04:14:37;99885.00;;;12.74;62.64
75991;BME280;64673;52.276;10.560;2023-05-10T04:17:03;99895.06;;;12.87;60.65
75991;BME280;64673;52.276;10.560;2023-05-10T04:19:31;99887.44;;;12.89;60.26
75991;BME280;64673;52.276;10.560;2023-05-10T04:21:57;99883.41;;;12.87;60.39
75991;BME280;64673;52.276;10.560;2023-05-10T04:24:23;99879.63;;;12.88;59.98
75991;BME280;64673;52.276;10.560;2023-05-10T04:26:48;99883.63;;;12.76;61.67
75991;BME280;64673;52.276;10.560;2023-05-10T04:29:13;99888.03;;;12.86;59.95
75991;BME280;64673;52.276;10.560;2023-05-10T04:31:38;99892.13;;;12.83;61.28
75991;BME280;64673;52.276;10.560;2023-05-10T04:34:04;99885.03;;;13.01;60.85
75991;BME280;64673;52.276;10.560;2023-05-10T04:36:30;99889.63;;;12.87;60.75
75991;BME280;64673;52.276;10.560;2023-05-10T04:38:55;99886.03;;;12.78;61.90
75991;BME280;64673;52.276;10.560;2023-05-10T04:41:20;99898.25;;;12.89;61.92
75991;BME280;64673;52.276;10.560;2023-05-10T04:43:46;99903.66;;;12.89;62.01
75991;BME280;64673;52.276;10.560;2023-05-10T04:46:11;99893.44;;;12.86;61.63
75991;BME280;64673;52.276;10.560;2023-05-10T04:48:36;99893.25;;;12.69;61.64
75991;BME280;64673;52.276;10.560;2023-05-10T04:51:02;99900.16;;;12.75;62.01
75991;BME280;64673;52.276;10.560;2023-05-10T04:53:29;99904.06;;;12.82;61.65
75991;BME280;64673;52.276;10.560;2023-05-10T04:55:54;99911.09;;;12.70;62.28
75991;BME280;64673;52.276;10.560;2023-05-10T04:58:20;99903.38;;;12.77;62.20
75991;BME280;64673;52.276;10.560;2023-05-10T05:00:45;99909.28;;;12.79;61.76
75991;BME280;64673;52.276;10.560;2023-05-10T05:03:10;99907.06;;;12.67;62.68
75991;BME280;64673;52.276;10.560;2023-05-10T05:05:36;99923.91;;;12.78;62.02
75991;BME280;64673;52.276;10.560;2023-05-10T05:08:01;99918.38;;;12.83;61.52
75991;BME280;64673;52.276;10.560;2023-05-10T05:10:26;99922.00;;;12.78;62.23
75991;BME280;64673;52.276;10.560;2023-05-10T05:12:52;99921.50;;;12.76;62.42
75991;BME280;64673;52.276;10.560;2023-05-10T05:15:17;99924.13;;;12.81;61.60
75991;BME280;64673;52.276;10.560;2023-05-10T05:17:43;99932.22;;;12.68;61.66
75991;BME280;64673;52.276;10.560;2023-05-10T05:20:09;99932.72;;;12.70;62.52
75991;BME280;64673;52.276;10.560;2023-05-10T05:22:37;99940.34;;;12.68;62.57
75991;BME280;64673;52.276;10.560;2023-05-10T05:25:02;99934.94;;;12.68;62.33
75991;BME280;64673;52.276;10.560;2023-05-10T05:27:29;99935.09;;;12.71;62.47
75991;BME280;64673;52.276;10.560;2023-05-10T05:29:55;99934.75;;;12.78;61.77
75991;BME280;64673;52.276;10.560;2023-05-10T05:32:21;99936.72;;;12.72;62.72
75991;BME280;64673;52.276;10.560;2023-05-10T05:34:46;99939.03;;;12.65;62.24
75991;BME280;64673;52.276;10.560;2023-05-10T05:37:19;99940.72;;;12.75;62.41
75991;BME280;64673;52.276;10.560;2023-05-10T05:39:46;99947.75;;;12.76;62.50
75991;BME280;64673;52.276;10.560;2023-05-10T05:42:12;99947.47;;;12.77;62.63
75991;BME280;64673;52.276;10.560;2023-05-10T05:44:38;99949.53;;;12.67;63.68
75991;BME280;64673;52.276;10.560;2023-05-10T05:47:05;99949.59;;;12.80;62.68
75991;BME280;64673;52.276;10.560;2023-05-10T05:49:30;99949.16;;;12.73;64.01
75991;BME280;64673;52.276;10.560;2023-05-10T05:51:59;99953.09;;;12.81;63.42
75991;BME280;64673;52.276;10.560;2023-05-10T05:54:25;99949.59;;;12.80;65.41
75991;BME280;64673;52.276;10.560;2023-05-10T05:56:54;99954.97;;;12.94;63.02
75991;BME280;64673;52.276;10.560;2023-05-10T05:59:22;99958.00;;;12.93;63.96
75991;BME280;64673;52.276;10.560;2023-05-10T06:01:47;99962.44;;;13.02;64.27
75991;BME280;64673;52.276;10.560;2023-05-10T06:04:12;99954.41;;;12.97;64.18
75991;BME280;64673;52.276;10.560;2023-05-10T06:06:38;99955.91;;;12.90;63.42
75991;BME280;64673;52.276;10.560;2023-05-10T06:09:03;99954.97;;;12.94;64.94
75991;BME280;64673;52.276;10.560;2023-05-10T06:11:29;99964.41;;;12.83;65.85
75991;BME280;64673;52.276;10.560;2023-05-10T06:13:55;99962.22;;;12.99;65.37
75991;BME280;64673;52.276;10.560;2023-05-10T06:16:21;99965.00;;;12.94;67.03
75991;BME280;64673;52.276;10.560;2023-05-10T06:18:46;99958.59;;;13.03;65.32
75991;BME280;64673;52.276;10.560;2023-05-10T06:21:11;99958.44;;;13.13;64.92
75991;BME280;64673;52.276;10.560;2023-05-10T06:23:37;99958.78;;;12.93;66.86
75991;BME280;64673;52.276;10.560;2023-05-10T06:26:02;99966.47;;;13.18;65.84
75991;BME280;64673;52.276;10.560;2023-05-10T06:28:28;99966.75;;;13.31;66.90
75991;BME280;64673;52.276;10.560;2023-05-10T06:30:53;99966.66;;;13.36;65.16
75991;BME280;64673;52.276;10.560;2023-05-10T06:33:18;99965.97;;;13.44;65.05
75991;BME280;64673;52.276;10.560;2023-05-10T06:35:44;99972.06;;;13.63;65.68
75991;BME280;64673;52.276;10.560;2023-05-10T06:38:09;99974.25;;;13.61;64.48
75991;BME280;64673;52.276;10.560;2023-05-10T06:40:34;99971.84;;;13.60;64.74
75991;BME280;64673;52.276;10.560;2023-05-10T06:43:01;99978.28;;;13.50;64.71
75991;BME280;64673;52.276;10.560;2023-05-10T06:45:26;99983.63;;;13.41;67.72
75991;BME280;64673;52.276;10.560;2023-05-10T06:47:53;99988.03;;;13.37;65.02
75991;BME280;64673;52.276;10.560;2023-05-10T06:50:18;99994.34;;;13.33;65.94
75991;BME280;64673;52.276;10.560;2023-05-10T06:52:43;99988.28;;;13.08;67.20
75991;BME280;64673;52.276;10.560;2023-05-10T06:55:09;100007.13;;;13.00;68.39
75991;BME280;64673;52.276;10.560;2023-05-10T06:57:34;100011.19;;;12.83;69.93
75991;BME280;64673;52.276;10.560;2023-05-10T07:00:01;100019.41;;;12.46;70.86
75991;BME280;64673;52.276;10.560;2023-05-10T07:02:26;100018.63;;;12.45;70.54
75991;BME280;64673;52.276;10.560;2023-05-10T07:04:51;100020.06;;;12.57;72.93
75991;BME280;64673;52.276;10.560;2023-05-10T07:07:17;100018.53;;;12.51;73.20
75991;BME280;64673;52.276;10.560;2023-05-10T07:09:43;100020.22;;;12.46;72.36
75991;BME280;64673;52.276;10.560;2023-05-10T07:12:08;100022.84;;;12.52;73.95
75991;BME280;64673;52.276;10.560;2023-05-10T07:14:33;100020.81;;;12.43;76.39
75991;BME280;64673;52.276;10.560;2023-05-10T07:16:59;100029.56;;;12.54;78.88
75991;BME280;64673;52.276;10.560;2023-05-10T07:19:24;100025.34;;;12.80;76.89
75991;BME280;64673;52.276;10.560;2023-05-10T07:21:50;100023.84;;;12.88;77.36
75991;BME280;64673;52.276;10.560;2023-05-10T07:24:15;100032.31;;;13.00;73.31
75991;BME280;64673;52.276;10.560;2023-05-10T07:26:41;100035.31;;;12.99;75.82
75991;BME280;64673;52.276;10.560;2023-05-10T07:29:06;100043.03;;;13.05;75.89
75991;BME280;64673;52.276;10.560;2023-05-10T07:31:31;100041.81;;;12.98;74.40
75991;BME280;64673;52.276;10.560;2023-05-10T07:33:57;100039.41;;;12.96;78.93
75991;BME280;64673;52.276;10.560;2023-05-10T07:36:22;100045.03;;;13.00;77.86
75991;BME280;64673;52.276;10.560;2023-05-10T07:38:47;100038.03;;;13.12;78.02
75991;BME280;64673;52.276;10.560;2023-05-10T07:41:14;100036.88;;;13.18;76.63
75991;BME280;64673;52.276;10.560;2023-05-10T07:43:40;100049.69;;;13.13;76.04
75991;BME280;64673;52.276;10.560;2023-05-10T07:46:05;100041.41;;;13.23;74.97
75991;BME280;64673;52.276;10.560;2023-05-10T07:48:30;100049.19;;;13.25;78.44
75991;BME280;64673;52.276;10.560;2023-05-10T07:50:56;100046.47;;;13.11;79.91
75991;BME280;64673;52.276;10.560;2023-05-10T07:53:21;100049.41;;;13.28;77.16
75991;BME280;64673;52.276;10.560;2023-05-10T07:56:31;100049.19;;;13.25;76.50
75991;BME280;64673;52.276;10.560;2023-05-10T07:58:57;100050.63;;;13.03;81.54
75991;BME280;64673;52.276;10.560;2023-05-10T08:01:23;100044.22;;;12.99;81.87
75991;BME280;64673;52.276;10.560;2023-05-10T08:03:49;100041.13;;;13.06;80.98
75991;BME280;64673;52.276;10.560;2023-05-10T08:06:17;100045.41;;;12.93;81.87
75991;BME280;64673;52.276;10.560;2023-05-10T08:08:43;100043.94;;;13.01;79.61
75991;BME280;64673;52.276;10.560;2023-05-10T08:11:10;100047.56;;;13.10;83.43
75991;BME280;64673;52.276;10.560;2023-05-10T08:13:35;100053.53;;;13.53;78.56
75991;BME280;64673;52.276;10.560;2023-05-10T08:16:01;100065.38;;;13.43;78.57
75991;BME280;64673;52.276;10.560;2023-05-10T08:18:26;100062.97;;;13.55;79.26
75991;BME280;64673;52.276;10.560;2023-05-10T08:20:51;100066.38;;;13.34;83.37
75991;BME280;64673;52.276;10.560;2023-05-10T08:23:17;100066.06;;;13.49;82.07
75991;BME280;64673;52.276;10.560;2023-05-10T08:25:42;100077.63;;;13.41;83.16
75991;BME280;64673;52.276;10.560;2023-05-10T08:28:08;100078.59;;;13.17;84.29
75991;BME280;64673;52.276;10.560;2023-05-10T08:30:33;100087.22;;;13.19;82.13
75991;BME280;64673;52.276;10.560;2023-05-10T08:32:58;100093.38;;;13.06;85.23
75991;BME280;64673;52.276;10.560;2023-05-10T08:35:24;100098.19;;;13.09;81.70
75991;BME280;64673;52.276;10.560;2023-05-10T08:37:50;100095.06;;;13.35;81.87
75991;BME280;64673;52.276;10.560;2023-05-10T08:40:16;100104.88;;;13.31;85.87
75991;BME280;64673;52.276;10.560;2023-05-10T08:42:51;100105.59;;;13.36;84.26
75991;BME280;64673;52.276;10.560;2023-05-10T08:45:20;100106.72;;;13.49;83.28
75991;BME280;64673;52.276;10.560;2023-05-10T08:47:47;100122.00;;;13.72;80.58
75991;BME280;64673;52.276;10.560;2023-05-10T08:50:13;100106.72;;;13.49;83.63
75991;BME280;64673;52.276;10.560;2023-05-10T08:52:40;100116.25;;;13.60;85.63
75991;BME280;64673;52.276;10.560;2023-05-10T08:55:06;100115.34;;;13.78;81.45
75991;BME280;64673;52.276;10.560;2023-05-10T08:57:32;100123.38;;;13.70;84.59
75991;BME280;64673;52.276;10.560;2023-05-10T08:59:59;100119.97;;;13.78;85.23
75991;BME280;64673;52.276;10.560;2023-05-10T09:02:26;100120.28;;;13.76;83.64
75991;BME280;64673;52.276;10.560;2023-05-10T09:04:51;100129.22;;;13.77;83.12
75991;BME280;64673;52.276;10.560;2023-05-10T09:07:17;100128.81;;;13.83;80.83
75991;BME280;64673;52.276;10.560;2023-05-10T09:09:43;100131.44;;;13.75;85.48
75991;BME280;64673;52.276;10.560;2023-05-10T09:12:09;100134.94;;;13.89;85.08
75991;BME280;64673;52.276;10.560;2023-05-10T09:14:36;100139.06;;;13.86;88.21
75991;BME280;64673;52.276;10.560;2023-05-10T09:17:02;100144.16;;;14.02;86.51
75991;BME280;64673;52.276;10.560;2023-05-10T09:19:29;100143.44;;;14.10;87.98
75991;BME280;64673;52.276;10.560;2023-05-10T09:21:54;100154.22;;;14.15;86.78
75991;BME280;64673;52.276;10.560;2023-05-10T09:24:25;100145.25;;;14.28;84.10
75991;BME280;64673;52.276;10.560;2023-05-10T09:26:50;100145.75;;;14.30;80.34
75991;BME280;64673;52.276;10.560;2023-05-10T09:29:16;100146.84;;;14.43;80.78
75991;BME280;64673;52.276;10.560;2023-05-10T09:34:11;100165.88;;;14.15;87.61
75991;BME280;64673;52.276;10.560;2023-05-10T09:36:50;100163.16;;;14.15;83.10
75991;BME280;64673;52.276;10.560;2023-05-10T09:39:15;100162.84;;;14.17;84.46
75991;BME280;64673;52.276;10.560;2023-05-10T09:41:42;100164.34;;;14.23;84.86
75991;BME280;64673;52.276;10.560;2023-05-10T09:44:07;100170.19;;;14.30;84.83
75991;BME280;64673;52.276;10.560;2023-05-10T09:46:35;100172.75;;;14.35;87.73
75991;BME280;64673;52.276;10.560;2023-05-10T09:49:01;100171.09;;;14.39;83.06
75991;BME280;64673;52.276;10.560;2023-05-10T09:51:26;100173.50;;;14.41;88.52
75991;BME280;64673;52.276;10.560;2023-05-10T09:54:16;100177.56;;;14.65;85.44
75991;BME280;64673;52.276;10.560;2023-05-10T09:56:42;100182.00;;;14.61;87.14
75991;BME280;64673;52.276;10.560;2023-05-10T09:59:10;100181.59;;;14.54;88.56
75991;BME280;64673;52.276;10.560;2023-05-10T10:01:36;100187.44;;;14.34;89.37
75991;BME280;64673;52.276;10.560;2023-05-10T10:04:05;100193.47;;;14.45;88.23
75991;BME280;64673;52.276;10.560;2023-05-10T10:06:38;100190.16;;;14.34;88.15
75991;BME280;64673;52.276;10.560;2023-05-10T10:09:05;100193.47;;;14.45;88.41
75991;BME280;64673;52.276;10.560;2023-05-10T10:11:31;100200.72;;;14.49;85.95
75991;BME280;64673;52.276;10.560;2023-05-10T10:13:56;100190.88;;;14.40;88.47
75991;BME280;64673;52.276;10.560;2023-05-10T10:16:21;100192.22;;;14.64;86.75
75991;BME280;64673;52.276;10.560;2023-05-10T10:18:48;100196.28;;;14.53;87.81
75991;BME280;64673;52.276;10.560;2023-05-10T10:21:15;100206.22;;;14.58;89.43
75991;BME280;64673;52.276;10.560;2023-05-10T10:23:40;100209.84;;;14.26;87.94
75991;BME280;64673;52.276;10.560;2023-05-10T10:26:06;100203.22;;;14.32;89.72
75991;BME280;64673;52.276;10.560;2023-05-10T10:31:39;100211.03;;;14.20;89.43
75991;BME280;64673;52.276;10.560;2023-05-10T10:34:06;100213.94;;;13.82;89.95
75991;BME280;64673;52.276;10.560;2023-05-10T10:36:40;100216.34;;;13.70;91.07
75991;BME280;64673;52.276;10.560;2023-05-10T10:39:10;100214.50;;;13.52;90.57
75991;BME280;64673;52.276;10.560;2023-05-10T10:41:38;100223.16;;;13.68;91.09
75991;BME280;64673;52.276;10.560;2023-05-10T10:52:28;100224.59;;;14.20;90.54
75991;BME280;64673;52.276;10.560;2023-05-10T10:57:24;100230.22;;;14.10;90.12
75991;BME280;64673;52.276;10.560;2023-05-10T10:59:53;100224.91;;;14.05;89.08
75991;BME280;64673;52.276;10.560;2023-05-10T11:02:44;100231.63;;;14.21;89.37
75991;BME280;64673;52.276;10.560;2023-05-10T11:07:58;100219.59;;;14.54;88.96
75991;BME280;64673;52.276;10.560;2023-05-10T11:10:25;100236.69;;;14.41;88.22
75991;BME280;64673;52.276;10.560;2023-05-10T11:13:00;100238.47;;;14.32;88.04
75991;BME280;64673;52.276;10.560;2023-05-10T11:15:37;100237.47;;;14.28;88.32
75991;BME280;64673;52.276;10.560;2023-05-10T11:20:41;100248.63;;;14.26;87.12
75991;BME280;64673;52.276;10.560;2023-05-10T11:23:12;100254.56;;;14.42;86.02
75991;BME280;64673;52.276;10.560;2023-05-10T11:25:45;100252.38;;;14.44;85.56
75991;BME280;64673;52.276;10.560;2023-05-10T11:28:11;100251.44;;;14.62;84.88
75991;BME280;64673;52.276;10.560;2023-05-10T11:30:40;100252.88;;;14.46;85.47
75991;BME280;64673;52.276;10.560;2023-05-10T11:33:07;100247.59;;;14.77;84.54
75991;BME280;64673;52.276;10.560;2023-05-10T11:35:38;100259.41;;;14.59;84.22
75991;BME280;64673;52.276;10.560;2023-05-10T11:38:08;100256.06;;;14.76;84.52
75991;BME280;64673;52.276;10.560;2023-05-10T11:40:34;100249.19;;;14.92;84.70
75991;BME280;64673;52.276;10.560;2023-05-10T11:43:00;100250.34;;;15.13;85.04
75991;BME280;64673;52.276;10.560;2023-05-10T11:45:25;100254.47;;;15.11;83.17
75991;BME280;64673;52.276;10.560;2023-05-10T11:47:51;100261.28;;;15.22;84.77
75991;BME280;64673;52.276;10.560;2023-05-10T11:50:17;100266.88;;;15.03;83.75
75991;BME280;64673;52.276;10.560;2023-05-10T11:52:42;100271.38;;;14.94;84.45
75991;BME280;64673;52.276;10.560;2023-05-10T11:55:08;100270.44;;;14.76;83.71
75991;BME280;64673;52.276;10.560;2023-05-10T11:57:33;100271.81;;;14.87;83.36
75991;BME280;64673;52.276;10.560;2023-05-10T11:59:58;100276.25;;;14.83;83.94
75991;BME280;64673;52.276;10.560;2023-05-10T12:02:24;100270.97;;;15.14;83.89
75991;BME280;64673;52.276;10.560;2023-05-10T12:04:50;100268.13;;;15.19;82.74
75991;BME280;64673;52.276;10.560;2023-05-10T12:07:16;100267.03;;;15.43;81.70
75991;BME280;64673;52.276;10.560;2023-05-10T12:10:01;100270.75;;;15.69;82.73
75991;BME280;64673;52.276;10.560;2023-05-10T12:12:27;100269.09;;;15.90;80.53
75991;BME280;64673;52.276;10.560;2023-05-10T12:14:52;100278.59;;;15.70;78.01
75991;BME280;64673;52.276;10.560;2023-05-10T12:17:17;100284.44;;;15.42;77.39
75991;BME280;64673;52.276;10.560;2023-05-10T12:19:43;100284.59;;;15.59;77.87
75991;BME280;64673;52.276;10.560;2023-05-10T12:22:10;100280.13;;;15.41;78.61
75991;BME280;64673;52.276;10.560;2023-05-10T12:24:36;100287.41;;;15.31;76.95
75991;BME280;64673;52.276;10.560;2023-05-10T12:27:07;100279.75;;;15.33;78.04
75991;BME280;64673;52.276;10.560;2023-05-10T12:29:33;100282.81;;;15.41;77.02
75991;BME280;64673;52.276;10.560;2023-05-10T12:31:59;100278.91;;;16.00;77.08
75991;BME280;64673;52.276;10.560;2023-05-10T12:34:35;100280.78;;;16.22;75.80
75991;BME280;64673;52.276;10.560;2023-05-10T12:37:04;100278.59;;;16.01;74.35
75991;BME280;64673;52.276;10.560;2023-05-10T12:39:40;100282.69;;;15.90;73.61
75991;BME280;64673;52.276;10.560;2023-05-10T12:42:06;100289.31;;;16.29;77.06
75991;BME280;64673;52.276;10.560;2023-05-10T12:44:31;100282.88;;;16.64;77.77
75991;BME280;64673;52.276;10.560;2023-05-10T12:46:57;100291.13;;;16.99;74.84
75991;BME280;64673;52.276;10.560;2023-05-10T12:49:22;100290.19;;;16.95;75.32
75991;BME280;64673;52.276;10.560;2023-05-10T12:51:47;100293.50;;;16.35;72.58
75991;BME280;64673;52.276;10.560;2023-05-10T12:54:13;100296.75;;;16.54;73.56
75991;BME280;64673;52.276;10.560;2023-05-10T12:56:38;100294.47;;;16.96;74.30
75991;BME280;64673;52.276;10.560;2023-05-10T12:59:03;100289.06;;;17.13;73.14
75991;BME280;64673;52.276;10.560;2023-05-10T13:01:29;100301.84;;;16.95;71.67
75991;BME280;64673;52.276;10.560;2023-05-10T13:03:54;100302.50;;;16.92;74.87
75991;BME280;64673;52.276;10.560;2023-05-10T13:06:20;100304.06;;;16.76;72.59
75991;BME280;64673;52.276;10.560;2023-05-10T13:08:45;100302.44;;;16.75;70.66
75991;BME280;64673;52.276;10.560;2023-05-10T13:11:10;100303.63;;;17.00;72.52
75991;BME280;64673;52.276;10.560;2023-05-10T13:13:36;100303.97;;;17.24;70.71
75991;BME280;64673;52.276;10.560;2023-05-10T13:16:01;100305.59;;;17.25;71.65
75991;BME280;64673;52.276;10.560;2023-05-10T13:18:26;100310.88;;;17.47;73.99
75991;BME280;64673;52.276;10.560;2023-05-10T13:20:51;100303.00;;;17.89;71.54
75991;BME280;64673;52.276;10.560;2023-05-10T13:23:18;100303.00;;;17.89;74.63